Time;durP1;ratioP1;P1;durP2;ratioP2;P2;SDS_P1;SDS_P2;PMS_P1;PMS_P2;Temp;Humidity;BMP_temperature;BMP_pressure;BME280_temperature;BME280_humidity;BME280_pressure;Samples;Min_cycle;Max_cycle;Signal;HPM_P1;HPM_P2
2022/01/29 00:01:54;;;;;;;11.70;6.68;;;;;;;10.72;50.79;102642.09;4990080;28;20524;-71
2022/01/29 00:04:21;;;;;;;11.40;7.25;;;;;;;10.72;50.89;102647.53;4990644;28;20050;-71
2022/01/29 00:06:48;;;;;;;11.55;6.68;;;;;;;10.72;50.87;102643.91;4991022;28;20057;-71
2022/01/29 00:09:15;;;;;;;13.57;7.85;;;;;;;10.75;50.86;102641.09;4989685;28;20042;-70
2022/01/29 00:11:43;;;;;;;12.23;6.72;;;;;;;10.75;50.76;102641.97;5010999;28;20116;-70
2022/01/29 00:14:10;;;;;;;13.88;7.43;;;;;;;10.75;50.83;102638.38;5007903;28;20513;-71
2022/01/29 00:16:37;;;;;;;10.77;6.15;;;;;;;10.75;50.86;102631.13;4983405;28;20074;-70
2022/01/29 00:19:04;;;;;;;14.52;7.55;;;;;;;10.76;50.94;102619.31;4988949;28;20117;-71
2022/01/29 00:21:31;;;;;;;12.93;7.35;;;;;;;10.78;50.86;102619.25;4990947;28;20042;-70
2022/01/29 00:23:58;;;;;;;14.80;8.38;;;;;;;10.77;50.92;102610.22;4988968;28;20050;-71
2022/01/29 00:26:26;;;;;;;16.00;8.30;;;;;;;10.77;51.04;102606.59;5006725;28;20448;-71
2022/01/29 00:28:55;;;;;;;16.13;8.23;;;;;;;10.76;50.87;102602.13;5010037;28;20042;-70
2022/01/29 00:31:21;;;;;;;15.02;8.07;;;;;;;10.74;50.76;102596.75;5023722;28;20085;-70
2022/01/29 00:33:48;;;;;;;14.35;8.27;;;;;;;10.74;50.61;102598.56;5009566;28;20050;-70
2022/01/29 00:36:15;;;;;;;15.77;7.82;;;;;;;10.74;51.06;102587.69;5008315;28;20085;-71
2022/01/29 00:38:41;;;;;;;14.65;7.68;;;;;;;10.75;51.05;102593.09;5009925;28;20350;-70
2022/01/29 00:41:08;;;;;;;16.80;8.27;;;;;;;10.73;51.21;102596.78;5009032;28;20049;-70
2022/01/29 00:43:35;;;;;;;18.17;9.50;;;;;;;10.75;51.05;102601.22;5009795;28;20053;-71
2022/01/29 00:46:01;;;;;;;19.60;9.52;;;;;;;10.75;51.18;102595.78;5007784;28;20074;-71
2022/01/29 00:48:28;;;;;;;14.98;8.90;;;;;;;10.75;51.24;102601.22;5009807;28;20132;-71
2022/01/29 00:50:57;;;;;;;16.73;9.02;;;;;;;10.76;51.25;102607.56;4982620;28;20505;-71
2022/01/29 00:53:23;;;;;;;14.75;8.32;;;;;;;10.73;51.12;102594.97;4991366;28;20225;-71
2022/01/29 00:55:50;;;;;;;16.17;8.75;;;;;;;10.75;51.23;102603.06;4986592;28;20502;-71
2022/01/29 00:58:16;;;;;;;17.58;8.90;;;;;;;10.74;51.38;102602.19;4990612;28;20411;-70
2022/01/29 01:00:44;;;;;;;17.17;9.10;;;;;;;10.77;51.37;102590.31;5007279;28;20053;-70
2022/01/29 01:03:11;;;;;;;15.95;9.30;;;;;;;10.76;51.26;102580.38;5009719;28;20041;-71
2022/01/29 01:05:38;;;;;;;18.27;9.93;;;;;;;10.77;51.25;102579.44;5013153;28;20053;-71
2022/01/29 01:08:05;;;;;;;18.75;9.90;;;;;;;10.76;51.48;102570.41;5017183;28;20708;-71
2022/01/29 01:10:31;;;;;;;17.67;9.48;;;;;;;10.77;51.42;102557.72;4994116;28;20468;-71
2022/01/29 01:12:58;;;;;;;15.00;9.20;;;;;;;10.78;51.28;102548.63;4990394;28;20109;-71
2022/01/29 01:15:25;;;;;;;17.35;9.95;;;;;;;10.78;51.71;102533.19;4983379;28;20536;-71
2022/01/29 01:17:52;;;;;;;17.05;9.45;;;;;;;10.78;51.46;102525.06;4988801;28;20046;-70
2022/01/29 01:20:18;;;;;;;17.50;9.07;;;;;;;10.79;51.43;102520.50;4986685;28;20061;-71
2022/01/29 01:22:45;;;;;;;15.15;8.75;;;;;;;10.80;51.72;102519.53;4990077;28;20314;-70
2022/01/29 01:25:11;;;;;;;15.82;9.77;;;;;;;10.80;51.43;102517.69;4994626;28;20058;-70
2022/01/29 01:27:38;;;;;;;17.75;9.10;;;;;;;10.80;51.59;102511.38;5008753;28;20096;-71
2022/01/29 01:30:06;;;;;;;16.75;9.32;;;;;;;10.80;51.57;102501.41;5007214;28;20524;-71
2022/01/29 01:32:32;;;;;;;15.45;9.50;;;;;;;10.83;51.40;102511.25;5017243;28;20131;-71
2022/01/29 01:35:10;;;;;;;19.08;9.18;;;;;;;10.82;51.38;102520.34;5010357;28;20053;-70
2022/01/29 01:37:45;;;;;;;17.80;9.80;;;;;;;10.82;51.70;102517.63;5009065;28;20189;-71
2022/01/29 01:40:12;;;;;;;15.93;8.88;;;;;;;10.81;51.30;102519.47;5008123;28;20128;-70
2022/01/29 01:42:39;;;;;;;15.70;9.25;;;;;;;10.83;51.65;102516.69;5022630;28;20501;-71
2022/01/29 01:45:06;;;;;;;19.92;10.00;;;;;;;10.83;51.72;102517.59;5006031;28;20049;-71
2022/01/29 01:47:33;;;;;;;17.15;8.98;;;;;;;10.81;51.82;102519.47;5008697;28;20046;-71
2022/01/29 01:50:00;;;;;;;15.93;8.20;;;;;;;10.82;51.64;102501.34;5008203;28;20620;-71
2022/01/29 01:52:27;;;;;;;17.95;8.68;;;;;;;10.84;51.73;102483.16;5012062;28;20058;-71
2022/01/29 01:54:54;;;;;;;15.88;9.02;;;;;;;10.84;51.54;102477.72;5013958;28;20406;-71
2022/01/29 01:57:21;;;;;;;15.43;8.88;;;;;;;10.84;51.72;102483.16;4993285;28;20054;-71
2022/01/29 01:59:47;;;;;;;13.98;7.75;;;;;;;10.85;51.56;102485.81;4992577;28;20486;-71
2022/01/29 02:02:15;;;;;;;16.55;8.27;;;;;;;10.88;51.43;102471.19;4992758;28;20453;-70
2022/01/29 02:04:42;;;;;;;16.38;9.23;;;;;;;10.90;51.44;102461.13;4986411;28;20516;-71
2022/01/29 02:07:08;;;;;;;16.40;9.43;;;;;;;10.89;51.36;102445.78;4989055;28;20054;-71
2022/01/29 02:09:38;;;;;;;16.02;9.90;;;;;;;10.90;51.66;102453.88;4992145;28;20041;-71
2022/01/29 02:12:04;;;;;;;16.63;9.13;;;;;;;10.89;51.43;102449.38;5007388;28;20137;-71
2022/01/29 02:14:33;;;;;;;14.63;9.05;;;;;;;10.90;51.78;102453.00;5006557;28;20046;-71
2022/01/29 02:17:02;;;;;;;14.70;8.80;;;;;;;10.93;51.40;102447.44;5003823;28;20460;-71
2022/01/29 02:19:29;;;;;;;15.40;9.65;;;;;;;10.94;51.23;102436.50;5006281;28;20065;-71
2022/01/29 02:21:57;;;;;;;15.75;9.85;;;;;;;10.92;51.58;102429.34;5009036;28;20049;-72
2022/01/29 02:24:24;;;;;;;16.13;9.02;;;;;;;10.88;51.54;102423.16;5006898;28;20061;-71
2022/01/29 02:26:52;;;;;;;16.10;9.38;;;;;;;10.88;51.51;102430.44;5007017;28;20108;-71
2022/01/29 02:29:20;;;;;;;16.50;9.40;;;;;;;10.92;51.36;102426.63;5005971;28;20048;-71
2022/01/29 02:31:50;;;;;;;17.35;9.95;;;;;;;10.89;51.32;102424.94;5007276;28;20378;-70
2022/01/29 02:34:18;;;;;;;13.75;8.68;;;;;;;10.89;51.61;102424.94;5007252;28;20108;-71
2022/01/29 02:36:46;;;;;;;14.88;9.20;;;;;;;10.88;51.71;102425.88;5007974;28;20054;-71
2022/01/29 02:39:16;;;;;;;15.73;8.73;;;;;;;10.86;51.62;102422.38;5005567;28;20497;-71
2022/01/29 02:41:44;;;;;;;14.40;8.43;;;;;;;10.87;51.90;102415.09;4993087;28;20128;-70
2022/01/29 02:44:16;;;;;;;17.02;8.32;;;;;;;10.89;51.60;102415.91;4997433;28;20498;-71
2022/01/29 02:49:24;;;;;;;16.35;8.95;;;;;;;10.91;51.74;102408.56;5007044;28;20142;-71
2022/01/29 02:51:56;;;;;;;13.80;8.00;;;;;;;10.90;51.74;102391.38;5007430;28;20100;-70
2022/01/29 02:54:24;;;;;;;14.38;8.63;;;;;;;10.90;51.92;102380.50;5006852;28;20136;-71
2022/01/29 02:56:52;;;;;;;15.82;9.02;;;;;;;10.94;51.42;102368.56;5009576;28;20062;-70
2022/01/29 02:59:19;;;;;;;14.85;9.13;;;;;;;10.91;51.76;102368.69;5007604;28;20100;-71
2022/01/29 03:01:46;;;;;;;14.65;8.35;;;;;;;10.93;51.71;102376.78;5010442;28;20062;-71
2022/01/29 03:04:13;;;;;;;17.40;9.75;;;;;;;10.92;51.90;102367.75;5021930;28;20046;-71
2022/01/29 03:06:39;;;;;;;16.60;9.45;;;;;;;10.93;51.50;102366.81;5010930;28;20073;-70
2022/01/29 03:09:06;;;;;;;15.35;9.05;;;;;;;10.92;51.69;102370.47;5006083;28;20053;-71
2022/01/29 03:11:33;;;;;;;13.45;7.80;;;;;;;10.91;51.87;102367.81;5011669;28;20104;-72
2022/01/29 03:14:00;;;;;;;13.85;8.02;;;;;;;10.94;51.91;102362.25;5012271;28;20278;-71
2022/01/29 03:16:27;;;;;;;17.27;8.52;;;;;;;10.93;51.86;102358.66;5009442;28;20068;-71
2022/01/29 03:18:53;;;;;;;14.95;8.52;;;;;;;10.94;51.93;102343.22;5011806;28;20076;-71
2022/01/29 03:21:20;;;;;;;14.40;8.18;;;;;;;10.92;52.15;102346.00;5009953;28;20131;-71
2022/01/29 03:23:47;;;;;;;12.43;7.72;;;;;;;10.94;51.90;102345.94;5011158;28;20555;-71
2022/01/29 03:26:13;;;;;;;14.55;8.18;;;;;;;10.93;52.21;102342.34;5001867;28;20464;-71
2022/01/29 03:28:40;;;;;;;13.32;7.75;;;;;;;10.93;52.11;102344.19;5011553;28;20120;-71
2022/01/29 03:31:07;;;;;;;14.52;7.97;;;;;;;10.93;52.12;102334.19;5011377;28;20042;-71
2022/01/29 03:33:34;;;;;;;15.82;9.02;;;;;;;10.95;52.19;102339.56;5013007;28;20064;-71
2022/01/29 03:36:01;;;;;;;15.45;8.35;;;;;;;10.93;52.34;102330.59;4993309;28;20070;-71
2022/01/29 03:38:27;;;;;;;12.57;7.07;;;;;;;10.93;52.45;102330.59;4991722;28;20502;-71
2022/01/29 03:40:57;;;;;;;14.38;7.95;;;;;;;10.92;52.59;102336.97;4990181;28;20047;-70
2022/01/29 03:43:34;;;;;;;13.65;7.75;;;;;;;10.90;52.45;102333.44;4979819;28;20074;-70
2022/01/29 03:46:01;;;;;;;13.30;7.10;;;;;;;10.91;52.50;102330.66;4978042;28;20525;-70
2022/01/29 03:48:27;;;;;;;13.45;7.10;;;;;;;10.91;52.38;102327.94;4987579;28;20093;-70
2022/01/29 03:50:54;;;;;;;13.10;8.18;;;;;;;10.92;52.25;102321.56;5005135;28;20081;-71
2022/01/29 03:53:21;;;;;;;11.85;6.95;;;;;;;10.93;52.64;102334.19;5011387;28;20073;-71
2022/01/29 03:55:47;;;;;;;13.60;7.22;;;;;;;10.94;52.52;102325.09;5008469;28;20136;-71
2022/01/29 03:58:14;;;;;;;13.40;7.25;;;;;;;10.94;52.46;102333.25;5011393;28;20132;-71
2022/01/29 04:00:40;;;;;;;13.95;7.40;;;;;;;10.97;52.35;102327.66;5006805;28;20046;-71
2022/01/29 04:03:08;;;;;;;12.63;6.68;;;;;;;10.96;52.86;102317.72;5006807;28;20088;-71
2022/01/29 04:05:36;;;;;;;12.48;6.40;;;;;;;10.98;52.26;102321.25;5008574;28;20056;-71
2022/01/29 04:08:06;;;;;;;10.38;6.65;;;;;;;10.98;52.54;102309.50;5011086;28;20065;-71
2022/01/29 04:10:33;;;;;;;11.65;6.80;;;;;;;10.98;52.57;102309.50;4995268;28;20054;-71
2022/01/29 04:13:00;;;;;;;11.77;6.22;;;;;;;11.01;52.54;102298.50;4986387;28;20108;-71
2022/01/29 04:15:26;;;;;;;11.60;5.85;;;;;;;11.01;52.75;102295.78;4991277;28;20054;-71
2022/01/29 04:17:53;;;;;;;11.38;6.82;;;;;;;11.02;52.78;102298.44;5008175;28;20640;-71
2022/01/29 04:20:21;;;;;;;11.57;6.60;;;;;;;10.98;52.66;102302.25;4998624;28;20054;-71
2022/01/29 04:22:48;;;;;;;11.18;6.13;;;;;;;10.98;52.66;102295.94;4982110;28;20046;-70
2022/01/29 04:25:15;;;;;;;10.88;5.93;;;;;;;10.96;52.88;102292.38;4994729;28;20054;-71
2022/01/29 04:27:42;;;;;;;11.95;6.18;;;;;;;10.97;52.87;102291.44;5010693;28;20141;-70
2022/01/29 04:30:40;;;;;;;11.98;6.00;;;;;;;10.98;53.19;102301.34;5019056;28;20481;-70
2022/01/29 04:33:03;;;;;;;11.15;5.95;;;;;;;11.00;52.97;102296.75;5013624;28;20054;-71
2022/01/29 04:35:30;;;;;;;11.30;6.00;;;;;;;10.98;52.83;102296.81;5003517;28;20125;-71
2022/01/29 04:37:57;;;;;;;11.10;6.55;;;;;;;10.99;52.96;102293.13;5010484;28;20324;-71
2022/01/29 04:40:23;;;;;;;11.65;6.18;;;;;;;10.99;53.12;102297.69;5000223;28;20066;-71
2022/01/29 04:42:50;;;;;;;11.15;6.40;;;;;;;10.98;53.07;102296.81;4995976;28;20498;-71
2022/01/29 04:45:17;;;;;;;10.68;5.80;;;;;;;10.99;52.99;102287.72;4997493;28;20062;-71
2022/01/29 04:47:43;;;;;;;10.65;6.47;;;;;;;11.00;53.25;102305.78;5009932;28;20108;-71
2022/01/29 04:50:10;;;;;;;9.20;5.75;;;;;;;11.02;53.33;102295.72;4998288;28;20103;-71
2022/01/29 04:52:37;;;;;;;9.57;5.50;;;;;;;11.00;53.41;102296.75;5020107;28;20060;-71
2022/01/29 04:55:04;;;;;;;11.45;5.45;;;;;;;11.00;53.39;102302.19;4997127;28;20505;-71
2022/01/29 04:57:31;;;;;;;9.70;5.43;;;;;;;11.02;53.51;102303.00;4989532;28;20540;-71
2022/01/29 04:59:59;;;;;;;10.43;5.88;;;;;;;10.98;53.42;102294.09;4987559;28;20494;-71
2022/01/29 05:02:25;;;;;;;10.25;5.43;;;;;;;10.97;53.42;102284.16;4989137;28;20080;-71
2022/01/29 05:04:52;;;;;;;10.20;5.60;;;;;;;10.98;53.55;102283.22;4987877;28;20065;-71
2022/01/29 05:07:19;;;;;;;8.85;5.28;;;;;;;10.99;53.50;102287.72;4990305;28;20081;-71
2022/01/29 05:09:47;;;;;;;8.60;5.18;;;;;;;10.98;53.48;102287.78;4988525;28;20081;-71
2022/01/29 05:12:19;;;;;;;9.15;5.38;;;;;;;10.97;53.73;102281.44;5000917;28;20077;-71
2022/01/29 05:15:06;;;;;;;9.25;5.18;;;;;;;10.95;53.54;102275.19;4993808;28;20132;-71
2022/01/29 05:28:35;;;;;;;8.25;4.82;;;;;;;10.95;54.02;102260.75;4984607;28;20465;-71
2022/01/29 05:31:02;;;;;;;7.88;4.95;;;;;;;10.98;54.01;102274.19;5004450;28;20452;-71
2022/01/29 05:33:29;;;;;;;7.80;5.03;;;;;;;10.99;53.69;102265.97;5011272;28;20049;-71
2022/01/29 05:35:55;;;;;;;7.60;4.90;;;;;;;10.98;53.91;102266.91;4992875;28;20185;-71
2022/01/29 05:38:22;;;;;;;8.05;4.65;;;;;;;10.99;54.02;102259.66;5000261;28;20074;-71
2022/01/29 05:40:48;;;;;;;9.05;5.05;;;;;;;10.98;54.07;102250.59;4984871;28;20097;-71
2022/01/29 05:43:15;;;;;;;7.47;4.68;;;;;;;10.99;53.82;102254.22;4981298;28;20057;-71
2022/01/29 05:45:42;;;;;;;8.00;4.65;;;;;;;10.99;54.01;102248.78;4999160;28;20141;-71
2022/01/29 05:48:09;;;;;;;7.57;4.68;;;;;;;10.99;54.28;102246.94;5007515;28;20058;-71
2022/01/29 05:50:35;;;;;;;6.68;4.22;;;;;;;10.99;54.16;102246.06;5007260;28;20046;-71
2022/01/29 05:53:02;;;;;;;7.55;4.13;;;;;;;11.01;54.18;102244.16;5009522;28;20096;-71
2022/01/29 05:55:30;;;;;;;7.65;4.22;;;;;;;11.00;54.50;102251.44;5005500;28;20121;-71
2022/01/29 05:57:56;;;;;;;7.32;4.20;;;;;;;10.98;54.45;102242.47;5008730;28;20085;-71
2022/01/29 06:00:24;;;;;;;6.47;4.00;;;;;;;11.03;54.33;102250.41;5007044;28;20169;-71
2022/01/29 06:03:03;;;;;;;7.22;4.30;;;;;;;11.04;54.58;102238.56;5009725;28;20088;-71
2022/01/29 06:05:31;;;;;;;6.32;3.92;;;;;;;11.02;54.50;102238.66;5007550;28;20484;-71
2022/01/29 06:07:57;;;;;;;6.45;4.10;;;;;;;11.02;54.64;102227.78;5009317;28;20058;-71
2022/01/29 06:10:25;;;;;;;6.78;4.15;;;;;;;11.05;54.54;102235.78;5006883;28;20129;-71
2022/01/29 06:13:10;;;;;;;6.13;4.15;;;;;;;11.07;54.79;102228.44;5008863;28;20089;-71
2022/01/29 06:15:42;;;;;;;6.43;4.20;;;;;;;11.09;54.29;102227.50;5007037;28;20054;-71
2022/01/29 06:18:15;;;;;;;6.85;4.05;;;;;;;11.07;54.82;102228.44;5002261;28;20065;-71
2022/01/29 06:20:44;;;;;;;5.70;3.72;;;;;;;11.07;54.77;102225.72;5007412;28;20058;-71
2022/01/29 06:23:12;;;;;;;5.80;4.07;;;;;;;11.09;54.67;102211.19;5014974;28;20049;-71
2022/01/29 06:25:39;;;;;;;5.32;3.80;;;;;;;11.11;54.58;102217.44;5006557;28;20231;-71
2022/01/29 06:28:06;;;;;;;6.53;3.83;;;;;;;11.10;54.78;102221.09;5014966;28;20078;-71
2022/01/29 06:30:32;;;;;;;7.00;3.75;;;;;;;11.09;54.89;102194.88;4992994;28;20133;-71
2022/01/29 06:33:10;;;;;;;7.10;4.18;;;;;;;11.11;54.83;102201.13;4990889;28;20086;-71
2022/01/29 06:35:39;;;;;;;6.97;4.20;;;;;;;11.09;54.92;102195.75;4986351;28;20157;-71
2022/01/29 06:38:07;;;;;;;6.75;4.20;;;;;;;11.10;55.11;102197.53;4992586;28;20481;-71
2022/01/29 06:40:35;;;;;;;6.50;4.07;;;;;;;11.13;55.02;102193.75;5004015;28;20046;-71
2022/01/29 06:43:03;;;;;;;7.00;4.38;;;;;;;11.14;54.88;102199.13;4993014;28;20355;-71
2022/01/29 06:45:31;;;;;;;6.72;4.38;;;;;;;11.14;54.95;102196.41;4993543;28;20086;-71
2022/01/29 06:47:58;;;;;;;7.13;4.30;;;;;;;11.14;55.20;102199.13;4992161;28;20089;-71
2022/01/29 06:50:25;;;;;;;6.65;4.18;;;;;;;11.17;55.00;102193.56;5002788;28;20057;-71
2022/01/29 06:52:53;;;;;;;8.90;4.90;;;;;;;11.18;54.96;102195.31;5027801;28;20128;-71
2022/01/29 06:55:20;;;;;;;6.72;4.00;;;;;;;11.20;55.01;102197.97;5011323;28;20053;-70
2022/01/29 06:57:47;;;;;;;7.68;4.63;;;;;;;11.23;55.05;102195.97;5012227;28;20189;-71
2022/01/29 07:00:34;;;;;;;8.40;4.95;;;;;;;11.23;55.00;102195.97;5010056;28;20440;-71
2022/01/29 07:03:00;;;;;;;7.28;4.90;;;;;;;11.26;54.95;102189.50;5012460;28;20084;-71
2022/01/29 07:05:27;;;;;;;8.02;4.78;;;;;;;11.27;55.34;102191.28;4998987;28;20060;-71
2022/01/29 07:07:54;;;;;;;7.57;4.90;;;;;;;11.27;55.15;102186.72;4984102;28;20081;-71
2022/01/29 07:10:20;;;;;;;8.15;5.40;;;;;;;11.28;55.32;102193.91;4988674;28;20498;-71
2022/01/29 07:12:47;;;;;;;8.05;4.90;;;;;;;11.30;55.12;102186.56;4992020;28;20424;-71
2022/01/29 07:15:14;;;;;;;7.25;4.85;;;;;;;11.32;55.21;102178.34;4995312;28;20417;-71
2022/01/29 07:17:40;;;;;;;8.20;5.00;;;;;;;11.32;55.21;102181.06;5011849;28;20050;-71
2022/01/29 07:20:08;;;;;;;7.53;4.82;;;;;;;11.33;55.13;102180.97;5010627;28;20464;-71
2022/01/29 07:22:34;;;;;;;7.53;4.85;;;;;;;11.33;55.41;102186.41;5015020;28;20111;-71
2022/01/29 07:25:01;;;;;;;8.23;5.32;;;;;;;11.38;55.24;102183.47;5018061;28;20065;-71
2022/01/29 07:27:28;;;;;;;6.85;4.90;;;;;;;11.39;55.21;102183.41;5012055;28;20100;-71
2022/01/29 07:29:54;;;;;;;8.23;5.10;;;;;;;11.39;55.23;102174.34;5009884;28;20056;-71
2022/01/29 07:32:21;;;;;;;8.75;5.32;;;;;;;11.41;55.11;102178.78;5014271;28;20564;-71
2022/01/29 07:34:48;;;;;;;7.35;5.07;;;;;;;11.41;55.34;102169.72;5009886;28;20054;-71
2022/01/29 07:37:15;;;;;;;7.88;4.85;;;;;;;11.44;55.26;102175.03;5011816;28;20137;-71
2022/01/29 07:39:41;;;;;;;7.15;4.82;;;;;;;11.44;55.39;102172.31;5004351;28;20058;-71
2022/01/29 07:42:08;;;;;;;8.27;4.70;;;;;;;11.45;55.29;102165.88;4990191;28;20046;-72
2022/01/29 07:44:35;;;;;;;6.68;4.85;;;;;;;11.48;55.39;102168.47;4989581;28;20081;-71
2022/01/29 07:47:02;;;;;;;8.20;5.30;;;;;;;11.51;55.26;102167.44;5006511;28;20085;-71
2022/01/29 07:49:28;;;;;;;8.05;5.05;;;;;;;11.50;55.20;102174.72;5010745;28;20082;-71
2022/01/29 07:51:55;;;;;;;7.93;5.50;;;;;;;11.51;55.29;102171.03;4990614;28;20105;-71
2022/01/29 07:54:22;;;;;;;7.30;4.75;;;;;;;11.52;55.54;102159.22;4979675;28;20113;-72
2022/01/29 07:56:48;;;;;;;6.88;4.70;;;;;;;11.53;55.47;102162.81;5010403;28;20441;-71
2022/01/29 07:59:15;;;;;;;7.78;4.97;;;;;;;11.55;55.47;102160.88;5009666;28;20144;-71
2022/01/29 08:01:41;;;;;;;7.60;4.78;;;;;;;11.57;55.18;102165.28;5010362;28;20100;-71
2022/01/29 08:04:08;;;;;;;7.72;4.50;;;;;;;11.58;55.36;102153.44;5008652;28;20060;-72
2022/01/29 08:06:35;;;;;;;8.20;4.60;;;;;;;11.58;55.54;102158.00;5013228;28;20038;-71
2022/01/29 08:09:02;;;;;;;7.30;5.00;;;;;;;11.60;55.33;102156.09;5011908;28;20059;-71
2022/01/29 08:11:29;;;;;;;8.10;4.93;;;;;;;11.62;55.34;102160.47;5008758;28;20050;-71
2022/01/29 08:13:55;;;;;;;7.65;4.80;;;;;;;11.62;55.68;102159.59;5009996;28;20116;-71
2022/01/29 08:16:22;;;;;;;6.88;4.47;;;;;;;11.63;55.55;102156.81;4990328;28;20499;-71
2022/01/29 08:18:49;;;;;;;6.80;4.47;;;;;;;11.66;55.54;102153.06;4982966;28;20050;-71
2022/01/29 08:21:16;;;;;;;7.30;4.63;;;;;;;11.70;55.33;102146.50;4989505;28;20109;-71
2022/01/29 08:23:44;;;;;;;7.95;5.18;;;;;;;11.72;55.69;102144.56;4988718;28;20100;-71
2022/01/29 08:26:11;;;;;;;8.32;5.15;;;;;;;11.72;55.31;102140.03;5006388;28;20489;-72
2022/01/29 08:28:38;;;;;;;7.82;5.60;;;;;;;11.74;55.36;102137.22;5015413;28;20049;-71
2022/01/29 08:31:06;;;;;;;8.20;5.47;;;;;;;11.74;55.59;102135.41;5009279;28;20637;-71
2022/01/29 08:33:32;;;;;;;7.72;5.05;;;;;;;11.75;55.54;102139.91;5016486;28;20095;-72
2022/01/29 08:36:00;;;;;;;7.80;5.10;;;;;;;11.76;55.57;102130.78;5006485;28;20141;-71
2022/01/29 08:38:27;;;;;;;7.60;5.00;;;;;;;11.77;55.64;102131.69;5007180;28;20111;-71
2022/01/29 08:40:54;;;;;;;8.10;5.40;;;;;;;11.78;55.69;102119.81;5006720;28;20049;-72
2022/01/29 08:43:22;;;;;;;8.43;5.50;;;;;;;11.79;55.44;102113.41;5004683;28;20061;-71
2022/01/29 08:45:50;;;;;;;7.60;5.13;;;;;;;11.81;55.70;102123.25;5001264;28;20089;-71
2022/01/29 08:48:18;;;;;;;9.30;5.43;;;;;;;11.84;55.80;102129.50;5008278;28;20058;-71
2022/01/29 08:50:45;;;;;;;7.93;5.38;;;;;;;11.84;55.42;102124.94;5008350;28;20050;-71
2022/01/29 08:53:15;;;;;;;9.05;5.72;;;;;;;11.87;55.71;102115.72;5006071;28;20054;-71
2022/01/29 08:55:42;;;;;;;8.50;6.10;;;;;;;11.86;55.56;102120.28;5006226;28;20081;-71
2022/01/29 08:58:09;;;;;;;8.23;5.32;;;;;;;11.87;55.76;102122.06;5012960;28;20411;-71
2022/01/29 09:00:38;;;;;;;9.50;5.80;;;;;;;11.88;55.97;102123.81;5008057;28;20084;-72
2022/01/29 09:03:05;;;;;;;6.60;4.57;;;;;;;11.91;55.82;102115.50;5004509;28;20417;-71
2022/01/29 09:05:34;;;;;;;7.80;5.40;;;;;;;11.95;55.95;102106.19;5007794;28;20066;-71
2022/01/29 09:08:03;;;;;;;9.10;6.15;;;;;;;11.98;55.91;102107.88;5009733;28;20120;-72
2022/01/29 09:10:31;;;;;;;7.53;5.30;;;;;;;11.99;55.88;102112.38;4992507;28;20145;-71
2022/01/29 09:12:58;;;;;;;7.45;5.05;;;;;;;11.98;56.04;102111.50;4978823;28;20054;-71
2022/01/29 09:15:25;;;;;;;6.95;4.93;;;;;;;12.01;55.86;102099.56;4998177;28;20281;-71
2022/01/29 09:17:52;;;;;;;8.52;5.50;;;;;;;12.04;55.57;102094.81;5007157;28;20050;-71
2022/01/29 09:20:19;;;;;;;9.52;5.50;;;;;;;12.04;55.87;102091.22;5008824;28;20501;-71
2022/01/29 09:22:46;;;;;;;7.93;4.97;;;;;;;12.07;55.75;102080.19;5009882;28;20109;-71
2022/01/29 09:25:13;;;;;;;7.72;5.25;;;;;;;12.07;55.67;102078.34;5006528;28;20050;-71
2022/01/29 09:27:40;;;;;;;6.88;4.80;;;;;;;12.07;55.57;102091.06;5006907;28;20053;-70
2022/01/29 09:30:08;;;;;;;7.65;4.70;;;;;;;12.10;55.75;102088.19;5006263;28;20045;-71
2022/01/29 09:32:35;;;;;;;6.93;4.80;;;;;;;12.13;55.75;102077.13;5007138;28;20369;-71
2022/01/29 09:35:04;;;;;;;8.00;4.82;;;;;;;12.14;55.87;102076.16;4999985;28;20050;-71
2022/01/29 09:37:30;;;;;;;6.38;4.55;;;;;;;12.15;55.80;102070.66;5006703;28;20049;-71
2022/01/29 09:39:58;;;;;;;7.35;5.20;;;;;;;12.20;55.40;102070.38;4998420;28;20390;-71
2022/01/29 09:42:25;;;;;;;7.55;5.50;;;;;;;12.19;55.94;102074.06;4989243;28;20050;-71
2022/01/29 09:44:52;;;;;;;7.05;4.97;;;;;;;12.18;55.65;102073.22;4985910;28;20137;-71
2022/01/29 09:47:23;;;;;;;7.88;5.28;;;;;;;12.22;55.73;102067.59;4988928;28;20441;-71
2022/01/29 09:49:52;;;;;;;7.38;4.90;;;;;;;12.24;55.95;102071.09;4988447;28;20078;-71
2022/01/29 09:52:19;;;;;;;6.57;4.35;;;;;;;12.25;56.04;102075.59;4986693;28;20096;-71
2022/01/29 09:54:47;;;;;;;7.05;4.90;;;;;;;12.27;55.63;102069.06;4982704;28;20100;-71
2022/01/29 09:57:14;;;;;;;7.53;5.25;;;;;;;12.28;55.69;102067.25;4982070;28;20129;-71
2022/01/29 09:59:41;;;;;;;7.40;5.10;;;;;;;12.30;55.90;102071.66;4986554;28;20345;-71
2022/01/29 10:02:16;;;;;;;7.90;4.80;;;;;;;12.35;55.91;102069.56;4987433;28;20096;-70
2022/01/29 10:04:55;;;;;;;6.47;4.20;;;;;;;12.35;55.99;102085.91;4986742;28;20073;-69
2022/01/29 10:07:28;;;;;;;7.32;4.60;;;;;;;12.35;55.66;102079.59;5007702;28;20046;-71
2022/01/29 10:09:56;;;;;;;6.88;4.75;;;;;;;12.38;55.65;102080.28;5008726;28;20065;-71
2022/01/29 10:12:29;;;;;;;6.97;4.80;;;;;;;12.41;55.82;102079.22;5007809;28;20559;-71
2022/01/29 10:14:58;;;;;;;6.80;4.57;;;;;;;12.41;55.73;102074.66;5009520;28;20469;-70
2022/01/29 10:17:39;;;;;;;6.65;4.93;;;;;;;12.46;55.84;102078.00;4999772;28;20050;-70
2022/01/29 10:20:22;;;;;;;6.78;4.90;;;;;;;12.48;55.65;102083.38;5003477;28;20058;-71
2022/01/29 10:22:52;;;;;;;7.20;4.80;;;;;;;12.47;55.65;102074.31;4991617;28;20046;-71
2022/01/29 10:25:26;;;;;;;7.20;4.70;;;;;;;12.50;55.97;102073.28;5000276;28;20046;-71
2022/01/29 10:28:13;;;;;;;6.53;4.60;;;;;;;12.48;56.00;102062.47;5013974;28;20440;-71
2022/01/29 10:30:48;;;;;;;7.90;5.15;;;;;;;12.53;55.67;102060.34;5000087;28;20056;-71
2022/01/29 10:33:20;;;;;;;7.20;4.55;;;;;;;12.54;55.60;102056.66;4992460;28;20090;-71
2022/01/29 10:35:53;;;;;;;7.28;4.43;;;;;;;12.53;55.97;102051.31;4985078;28;20066;-71
2022/01/29 10:38:26;;;;;;;7.53;4.53;;;;;;;12.55;55.99;102044.81;4990110;28;20097;-71
2022/01/29 10:41:11;;;;;;;7.35;4.75;;;;;;;12.57;55.83;102033.84;5002249;28;20145;-71
2022/01/29 10:43:59;;;;;;;7.38;4.82;;;;;;;12.58;56.03;102033.75;5007545;28;20690;-71
2022/01/29 10:46:30;;;;;;;7.82;4.80;;;;;;;12.60;55.98;102020.00;5007702;28;20111;-71
2022/01/29 10:48:59;;;;;;;5.93;4.20;;;;;;;12.62;56.00;102023.53;5013346;28;20119;-71
2022/01/29 10:51:26;;;;;;;6.40;4.32;;;;;;;12.64;56.13;102018.00;5009679;28;20050;-71
2022/01/29 10:53:53;;;;;;;6.45;4.78;;;;;;;12.65;55.87;102028.81;5010041;28;20049;-71
2022/01/29 10:56:21;;;;;;;5.78;4.30;;;;;;;12.68;55.84;102031.38;5013354;28;20515;-71
2022/01/29 10:58:50;;;;;;;5.13;3.67;;;;;;;12.70;55.83;102018.53;5012494;28;20096;-71
2022/01/29 11:01:19;;;;;;;5.82;3.88;;;;;;;12.70;55.80;102012.19;5007282;28;20699;-71
2022/01/29 11:03:46;;;;;;;5.90;4.07;;;;;;;12.72;56.22;102015.72;5013488;28;20457;-71
2022/01/29 11:06:20;;;;;;;5.43;3.58;;;;;;;12.74;55.83;102008.34;5012788;28;20066;-71
2022/01/29 11:08:47;;;;;;;5.10;3.60;;;;;;;12.74;56.16;102005.63;5010946;28;20413;-72
2022/01/29 11:11:16;;;;;;;5.00;3.40;;;;;;;12.76;56.13;101999.13;5006940;28;20068;-72
2022/01/29 11:14:03;;;;;;;4.80;3.40;;;;;;;12.77;56.17;101997.25;5008363;28;20104;-73
2022/01/29 11:16:30;;;;;;;5.15;3.90;;;;;;;12.79;56.08;101993.47;5007946;28;20042;-72
2022/01/29 11:18:58;;;;;;;5.68;3.35;;;;;;;12.80;56.30;101980.75;5011208;28;20483;-72
2022/01/29 11:21:26;;;;;;;5.07;3.22;;;;;;;12.80;55.96;101987.06;5004170;28;20061;-72
2022/01/29 11:23:53;;;;;;;4.60;3.20;;;;;;;12.83;56.13;101980.56;5003906;28;20099;-71
2022/01/29 11:26:20;;;;;;;4.13;2.83;;;;;;;12.84;56.31;101965.97;5011180;28;20135;-72
2022/01/29 11:28:47;;;;;;;4.10;2.70;;;;;;;12.84;56.55;101966.84;5014120;28;20046;-72
2022/01/29 11:31:13;;;;;;;5.47;2.60;;;;;;;12.84;56.41;101960.53;5009077;28;20568;-72
2022/01/29 11:33:59;;;;;;;3.78;2.58;;;;;;;12.88;56.13;101956.63;4999557;28;21081;-71
2022/01/29 11:36:47;;;;;;;3.95;2.38;;;;;;;12.84;56.47;101953.22;5006080;28;20124;-71
2022/01/29 11:39:29;;;;;;;3.72;2.50;;;;;;;12.84;56.64;101947.78;5007705;28;20046;-71
2022/01/29 11:42:11;;;;;;;3.17;1.90;;;;;;;12.86;56.54;101937.63;5009926;28;20058;-72